KOKK/OKK METAR and TAF weather

Enter ICAO airport designator
Station Type Date Time Source
KOKK METAR 2021/07/26 15:56 UTC NOAA

KOKK 261556Z AUTO 30006KT 10SM CLR 28/21 A3006 RMK AO2 SLP171 T02830206 PNO $


Station Type Date Time Source
KOKK Decoded METAR 2021/07/26 15:56 UTC NOAA

Kokomo, Kokomo Municipal Airport, IN, United States (KOKK) 40-32N 086-04W
Jul 26, 2021 - 11:56 AM EDT / 2021.07.26 1556 UTC
Wind: from the WNW (300 degrees) at 7 MPH (6 KT):0
Visibility: 10 mile(s):0
Sky conditions: clear
Temperature: 82.9 F (28.3 C)
Dew Point: 69.1 F (20.6 C)
Relative Humidity: 63%
Pressure (altimeter): 30.06 in. Hg (1017 hPa)
ob: KOKK 261556Z AUTO 30006KT 10SM CLR 28/21 A3006 RMK AO2 SLP171 T02830206 PNO
cycle: 16

Station Type Date Time Source
KOKK TAF UTC NOAA

Error!

Example: see airport list